createdAt,value
2019-02-23T00:00:12.742Z,3.86
2019-02-23T00:02:40.937Z,3.83
2019-02-23T00:05:07.256Z,3.87
2019-02-23T00:07:33.561Z,3.90
2019-02-23T00:09:59.795Z,3.95
2019-02-23T00:12:26.075Z,3.96
2019-02-23T00:14:52.295Z,3.88
2019-02-23T00:17:18.412Z,3.83
2019-02-23T00:19:44.542Z,3.81
2019-02-23T00:22:10.792Z,3.87
2019-02-23T00:24:36.903Z,3.99
2019-02-23T00:27:03.176Z,3.89
2019-02-23T00:29:29.512Z,3.93
2019-02-23T00:31:55.636Z,3.92
2019-02-23T00:34:21.864Z,3.93
2019-02-23T00:36:48.035Z,3.92
2019-02-23T00:39:14.260Z,3.94
2019-02-23T00:41:40.479Z,3.91
2019-02-23T00:44:06.583Z,3.93
2019-02-23T00:46:33.959Z,3.97
2019-02-23T00:49:00.085Z,3.89
2019-02-23T00:51:26.289Z,3.89
2019-02-23T00:53:52.511Z,3.96
2019-02-23T00:56:18.761Z,3.96
2019-02-23T00:58:44.851Z,3.99
2019-02-23T01:01:11.205Z,3.93
2019-02-23T01:03:37.404Z,3.99
2019-02-23T01:06:03.776Z,4.00
2019-02-23T01:08:29.873Z,3.99
2019-02-23T01:10:58.331Z,3.99
2019-02-23T01:13:24.204Z,3.99
2019-02-23T01:15:51.611Z,4.04
2019-02-23T01:18:17.918Z,4.01
2019-02-23T01:20:44.279Z,4.00
2019-02-23T01:23:10.610Z,4.05
2019-02-23T01:25:36.780Z,4.08
2019-02-23T01:28:03.262Z,4.17
2019-02-23T01:30:29.509Z,4.03
2019-02-23T01:32:55.730Z,4.06
2019-02-23T01:35:21.965Z,4.11
2019-02-23T01:37:48.378Z,4.06
2019-02-23T01:40:14.988Z,4.06
2019-02-23T01:42:41.060Z,4.07
2019-02-23T01:45:07.683Z,4.03
2019-02-23T01:47:34.119Z,4.02
2019-02-23T01:50:00.452Z,4.01
2019-02-23T01:52:26.760Z,3.96
2019-02-23T01:54:52.865Z,3.96
2019-02-23T01:57:18.962Z,3.97
2019-02-23T01:59:45.222Z,3.91
2019-02-23T02:02:12.065Z,3.76
2019-02-23T02:04:38.510Z,3.65
2019-02-23T02:07:04.802Z,3.59
2019-02-23T02:09:31.085Z,3.64
2019-02-23T02:11:57.600Z,3.57
2019-02-23T02:14:23.811Z,3.50
2019-02-23T02:16:49.976Z,3.45
2019-02-23T02:19:16.108Z,3.38
2019-02-23T02:21:42.340Z,3.27
2019-02-23T02:24:08.742Z,3.19
2019-02-23T02:26:34.946Z,3.15
2019-02-23T02:29:02.441Z,3.11
2019-02-23T02:31:28.736Z,3.08
2019-02-23T02:34:06.962Z,3.07
2019-02-23T02:36:33.343Z,3.09
2019-02-23T02:38:59.450Z,2.89
2019-02-23T02:41:25.702Z,2.88
2019-02-23T02:43:51.932Z,2.79
2019-02-23T02:46:18.131Z,2.74
2019-02-23T02:48:44.495Z,2.69
2019-02-23T02:51:10.854Z,2.66
2019-02-23T02:53:37.211Z,2.69
2019-02-23T02:56:03.641Z,2.60
2019-02-23T02:58:29.767Z,2.56
2019-02-23T03:00:56.101Z,2.54
2019-02-23T03:03:22.362Z,2.50
2019-02-23T03:05:48.567Z,2.49
2019-02-23T03:08:14.930Z,2.35
2019-02-23T03:10:41.090Z,2.40
2019-02-23T03:13:07.413Z,2.26
2019-02-23T03:15:33.695Z,2.22
2019-02-23T03:17:59.941Z,2.25
2019-02-23T03:20:36.184Z,2.28
2019-02-23T03:22:54.287Z,2.20
2019-02-23T03:25:20.418Z,2.22
2019-02-23T03:27:46.549Z,2.24
2019-02-23T03:30:12.935Z,2.16
2019-02-23T03:32:39.097Z,2.15
2019-02-23T03:35:05.541Z,2.11
2019-02-23T03:37:31.705Z,2.09
2019-02-23T03:39:57.903Z,2.06
2019-02-23T03:42:24.151Z,2.02
2019-02-23T03:44:50.354Z,2.08
2019-02-23T03:47:16.638Z,2.07
2019-02-23T03:49:42.856Z,2.07
2019-02-23T03:52:09.146Z,2.14
2019-02-23T03:54:35.445Z,2.08
2019-02-23T03:57:01.670Z,2.08
2019-02-23T03:59:27.964Z,2.00
2019-02-23T04:01:54.167Z,1.85
2019-02-23T04:04:20.289Z,1.74
2019-02-23T04:06:46.505Z,1.78
2019-02-23T04:09:12.773Z,1.77
2019-02-23T04:11:39.020Z,1.82
2019-02-23T04:14:08.745Z,1.87
2019-02-23T04:16:34.887Z,1.78
2019-02-23T04:19:05.364Z,1.84
2019-02-23T04:21:31.471Z,1.73
2019-02-23T04:23:57.577Z,1.65
2019-02-23T04:26:23.894Z,1.54
2019-02-23T04:28:50.235Z,1.64
2019-02-23T04:31:23.907Z,1.65
2019-02-23T04:33:50.084Z,1.64
2019-02-23T04:36:16.243Z,1.53
2019-02-23T04:38:42.501Z,1.49
2019-02-23T04:41:09.345Z,1.57
2019-02-23T04:43:35.477Z,1.46
2019-02-23T04:46:16.119Z,1.42
2019-02-23T04:48:42.522Z,1.50
2019-02-23T04:51:14.187Z,1.48
2019-02-23T04:53:36.820Z,1.46
2019-02-23T04:56:09.507Z,1.49
2019-02-23T04:58:35.726Z,1.46
2019-02-23T05:01:14.663Z,1.37
2019-02-23T05:03:40.896Z,1.30
2019-02-23T05:06:07.128Z,1.32
2019-02-23T05:08:33.648Z,1.26
2019-02-23T05:10:59.947Z,1.38
2019-02-23T05:13:26.128Z,1.38
2019-02-23T05:15:52.442Z,1.26
2019-02-23T05:18:18.647Z,1.36
2019-02-23T05:20:44.863Z,1.18
2019-02-23T05:23:11.007Z,1.24
2019-02-23T05:25:37.091Z,1.26
2019-02-23T05:28:06.073Z,1.21
2019-02-23T05:30:32.426Z,1.18
2019-02-23T05:32:58.736Z,1.06
2019-02-23T05:35:24.938Z,1.08
2019-02-23T05:37:53.000Z,0.98
2019-02-23T05:40:24.044Z,1.01
2019-02-23T05:43:00.582Z,1.06
2019-02-23T05:45:19.783Z,0.94
2019-02-23T05:47:46.110Z,0.96
2019-02-23T05:50:12.219Z,0.90
2019-02-23T05:52:38.452Z,0.92
2019-02-23T05:55:06.311Z,0.86
2019-02-23T05:57:32.446Z,0.95
2019-02-23T05:59:58.580Z,0.93
2019-02-23T06:02:24.884Z,0.93
2019-02-23T06:04:50.985Z,0.97
2019-02-23T06:07:17.266Z,0.97
2019-02-23T06:09:43.897Z,0.89
2019-02-23T06:12:10.307Z,0.69
2019-02-23T06:14:36.596Z,0.72
2019-02-23T06:17:06.806Z,0.69
2019-02-23T06:19:32.935Z,0.69
2019-02-23T06:21:59.141Z,0.68
2019-02-23T06:24:25.355Z,0.70
2019-02-23T06:26:51.953Z,0.67
2019-02-23T06:29:18.364Z,0.63
2019-02-23T06:31:44.664Z,0.61
2019-02-23T06:34:16.136Z,0.56
2019-02-23T06:36:38.918Z,0.60
2019-02-23T06:39:07.439Z,0.57
2019-02-23T06:41:33.855Z,0.52
2019-02-23T06:44:00.070Z,0.61
2019-02-23T06:46:26.191Z,0.57
2019-02-23T06:48:52.552Z,0.55
2019-02-23T06:51:19.187Z,0.49
2019-02-23T06:53:45.741Z,0.43
2019-02-23T06:56:12.075Z,0.48
2019-02-23T06:58:38.660Z,0.63
2019-02-23T07:01:06.624Z,0.61
2019-02-23T07:03:32.759Z,0.44
2019-02-23T07:05:59.025Z,0.51
2019-02-23T07:08:25.383Z,0.55
2019-02-23T07:10:51.641Z,0.56
2019-02-23T07:13:17.998Z,0.58
2019-02-23T07:15:44.256Z,0.62
2019-02-23T07:18:10.502Z,0.69
2019-02-23T07:20:44.138Z,0.74
2019-02-23T07:25:37.347Z,0.83
2019-02-23T07:28:05.971Z,0.83
2019-02-23T07:30:32.996Z,0.88
2019-02-23T07:32:59.164Z,0.97
2019-02-23T07:35:26.431Z,1.02
2019-02-23T07:37:52.766Z,0.93
2019-02-23T07:40:19.033Z,1.06
2019-02-23T07:42:45.120Z,0.97
2019-02-23T07:45:11.576Z,1.09
2019-02-23T07:47:38.799Z,1.14
2019-02-23T07:50:13.520Z,1.11
2019-02-23T07:52:39.959Z,1.19
2019-02-23T07:55:13.333Z,1.14
2019-02-23T07:57:39.580Z,1.28
2019-02-23T08:00:09.779Z,1.24
2019-02-23T08:02:41.903Z,1.22
2019-02-23T08:05:08.865Z,1.34
2019-02-23T08:07:35.159Z,1.38
2019-02-23T08:10:10.459Z,1.51
2019-02-23T08:12:36.801Z,1.65
2019-02-23T08:15:09.612Z,1.65
2019-02-23T08:17:38.593Z,1.74
2019-02-23T08:20:18.093Z,1.87
2019-02-23T08:22:44.301Z,1.85
2019-02-23T08:25:14.425Z,2.05
2019-02-23T08:27:40.952Z,1.94
2019-02-23T08:30:12.740Z,2.05
2019-02-23T08:32:39.189Z,2.13
2019-02-23T08:35:12.868Z,2.25
2019-02-23T08:37:44.261Z,2.31
2019-02-23T08:40:12.384Z,2.32
2019-02-23T08:42:38.621Z,2.33
2019-02-23T08:45:07.237Z,2.49
2019-02-23T08:47:33.541Z,2.63
2019-02-23T08:49:59.633Z,2.67
2019-02-23T08:52:25.976Z,2.55
2019-02-23T08:54:52.184Z,2.91
2019-02-23T08:57:19.492Z,3.02
2019-02-23T08:59:45.712Z,3.09
2019-02-23T09:02:11.951Z,3.04
2019-02-23T09:04:38.240Z,3.17
2019-02-23T09:07:04.398Z,3.19
2019-02-23T09:09:30.626Z,3.22
2019-02-23T09:11:56.827Z,3.15
2019-02-23T09:14:22.958Z,3.13
2019-02-23T09:16:49.038Z,3.23
2019-02-23T09:19:15.283Z,3.44
2019-02-23T09:21:41.719Z,3.58
2019-02-23T09:24:07.862Z,3.68
2019-02-23T09:26:34.111Z,3.54
2019-02-23T09:29:00.437Z,3.71
2019-02-23T09:31:26.811Z,3.85
2019-02-23T09:33:53.269Z,4.04
2019-02-23T09:36:19.512Z,4.30
2019-02-23T09:38:45.722Z,4.34
2019-02-23T09:41:11.959Z,4.23
2019-02-23T09:43:38.317Z,4.45
2019-02-23T09:46:04.429Z,4.40
2019-02-23T09:48:30.891Z,4.32
2019-02-23T09:50:57.128Z,4.31
2019-02-23T09:53:23.466Z,4.54
2019-02-23T09:55:49.778Z,4.65
2019-02-23T09:58:16.250Z,4.77
2019-02-23T10:00:42.664Z,4.87
2019-02-23T10:03:08.880Z,4.87
2019-02-23T10:05:34.984Z,4.87
2019-02-23T10:08:01.235Z,4.94
2019-02-23T10:10:27.326Z,5.13
2019-02-23T10:12:54.618Z,5.23
2019-02-23T10:15:20.933Z,4.83
2019-02-23T10:17:47.062Z,4.99
2019-02-23T10:20:14.291Z,5.07
2019-02-23T10:22:40.650Z,5.41
2019-02-23T10:25:07.199Z,5.54
2019-02-23T10:27:33.563Z,5.84
2019-02-23T10:30:00.006Z,6.04
2019-02-23T10:32:26.823Z,5.64
2019-02-23T10:34:53.071Z,6.01
2019-02-23T10:37:19.325Z,6.30
2019-02-23T10:39:45.604Z,6.15
2019-02-23T10:42:11.839Z,6.24
2019-02-23T10:44:38.081Z,6.47
2019-02-23T10:47:04.321Z,6.39
2019-02-23T10:49:30.486Z,6.07
2019-02-23T10:51:56.877Z,6.51
2019-02-23T10:54:23.261Z,6.72
2019-02-23T10:56:49.561Z,6.88
2019-02-23T10:59:15.904Z,6.68
2019-02-23T11:01:43.413Z,6.56
2019-02-23T11:04:09.882Z,7.00
2019-02-23T11:06:38.413Z,6.96
2019-02-23T11:09:07.096Z,6.76
2019-02-23T11:11:34.841Z,6.75
2019-02-23T11:14:01.144Z,6.85
2019-02-23T11:16:27.469Z,7.04
2019-02-23T11:18:53.584Z,6.80
2019-02-23T11:21:19.981Z,6.85
2019-02-23T11:23:46.279Z,7.13
2019-02-23T11:26:12.644Z,7.16
2019-02-23T11:28:39.044Z,7.27
2019-02-23T11:31:06.300Z,7.47
2019-02-23T11:33:32.765Z,7.60
2019-02-23T11:35:59.203Z,7.63
2019-02-23T11:38:25.720Z,7.82
2019-02-23T11:40:52.098Z,7.59
2019-02-23T11:43:18.558Z,7.96
2019-02-23T11:45:45.153Z,8.24
2019-02-23T11:48:11.514Z,8.29
2019-02-23T11:50:37.941Z,8.17
2019-02-23T11:53:04.221Z,8.24
2019-02-23T11:55:30.917Z,8.32
2019-02-23T11:57:57.369Z,8.56
2019-02-23T12:00:23.677Z,8.83
2019-02-23T12:02:52.703Z,8.94
2019-02-23T12:05:18.294Z,8.66
2019-02-23T12:07:44.854Z,8.61
2019-02-23T12:10:15.710Z,8.73
2019-02-23T12:12:55.514Z,8.42
2019-02-23T12:15:33.918Z,8.34
2019-02-23T12:21:08.656Z,8.92
2019-02-23T12:23:35.082Z,8.74
2019-02-23T12:26:01.559Z,9.14
2019-02-23T12:28:28.133Z,9.66
2019-02-23T12:30:54.647Z,9.74
2019-02-23T12:33:20.857Z,9.23
2019-02-23T12:35:47.166Z,8.66
2019-02-23T12:38:13.510Z,8.78
2019-02-23T12:40:39.910Z,8.85
2019-02-23T12:43:06.222Z,9.23
2019-02-23T12:45:32.453Z,9.01
2019-02-23T12:47:58.632Z,9.29
2019-02-23T12:50:25.025Z,9.76
2019-02-23T12:52:51.420Z,9.60
2019-02-23T12:55:17.698Z,9.40
2019-02-23T12:57:44.170Z,9.60
2019-02-23T13:00:17.503Z,9.79
2019-02-23T13:02:43.852Z,10.10
2019-02-23T13:05:10.123Z,10.32
2019-02-23T13:07:36.536Z,10.21
2019-02-23T13:10:15.681Z,10.24
2019-02-23T13:13:08.893Z,10.52
2019-02-23T13:15:47.791Z,10.76
2019-02-23T13:18:36.191Z,10.58
2019-02-23T13:21:15.331Z,10.78
2019-02-23T13:24:07.352Z,10.88
2019-02-23T13:26:50.588Z,11.31
2019-02-23T13:29:20.721Z,11.68
2019-02-23T13:32:16.907Z,11.82
2019-02-23T13:35:05.674Z,11.73
2019-02-23T13:37:51.710Z,11.66
2019-02-23T13:40:39.065Z,11.84
2019-02-23T13:43:16.492Z,12.21
2019-02-23T13:45:52.626Z,11.62
2019-02-23T13:48:34.446Z,11.52
2019-02-23T13:51:23.703Z,11.67
2019-02-23T13:54:10.703Z,11.77
2019-02-23T13:56:40.650Z,11.93
2019-02-23T13:59:13.575Z,12.29
2019-02-23T14:02:06.266Z,12.14
2019-02-23T14:04:53.586Z,11.53
2019-02-23T14:07:32.900Z,12.22
2019-02-23T14:10:36.876Z,12.19
2019-02-23T14:13:29.571Z,12.15
2019-02-23T14:16:19.312Z,12.20
2019-02-23T14:18:52.348Z,12.22
2019-02-23T14:21:43.097Z,12.04
2019-02-23T14:24:18.793Z,11.66
2019-02-23T14:27:14.944Z,11.58
2019-02-23T14:29:58.739Z,11.52
2019-02-23T14:32:55.520Z,11.94
2019-02-23T14:35:31.307Z,11.72
2019-02-23T14:38:19.809Z,11.77
2019-02-23T14:46:42.566Z,11.99
2019-02-23T14:49:34.961Z,12.17
2019-02-23T14:52:16.890Z,12.19
2019-02-23T14:55:00.918Z,12.03
2019-02-23T14:57:57.202Z,11.78
2019-02-23T15:00:37.177Z,11.85
2019-02-23T15:03:24.591Z,11.97
2019-02-23T15:06:08.994Z,12.11
2019-02-23T15:08:48.352Z,11.98
2019-02-23T15:11:28.433Z,12.13
2019-02-23T15:14:05.880Z,11.81
2019-02-23T15:17:11.232Z,11.69
2019-02-23T15:20:13.528Z,11.29
2019-02-23T15:25:40.479Z,12.18
2019-02-23T15:29:24.699Z,11.91
2019-02-23T15:32:28.010Z,11.87
2019-02-23T15:34:57.933Z,11.60
2019-02-23T15:37:47.710Z,11.35
2019-02-23T15:40:28.102Z,11.00
2019-02-23T15:43:07.386Z,10.91
2019-02-23T15:45:40.476Z,10.73
2019-02-23T15:48:24.140Z,11.17
2019-02-23T15:50:50.604Z,10.89
2019-02-23T15:53:16.898Z,10.63
2019-02-23T15:55:55.410Z,10.31
2019-02-23T15:58:27.600Z,10.38
2019-02-23T16:00:53.945Z,10.55
2019-02-23T16:03:20.220Z,10.18
2019-02-23T16:05:46.477Z,10.49
2019-02-23T16:08:12.609Z,10.49
2019-02-23T16:10:40.706Z,10.45
2019-02-23T16:13:07.201Z,10.17
2019-02-23T16:15:33.551Z,9.98
2019-02-23T16:18:00.409Z,10.16
2019-02-23T16:20:26.958Z,10.17
2019-02-23T16:22:53.080Z,10.29
2019-02-23T16:25:19.522Z,9.92
2019-02-23T16:27:47.015Z,9.66
2019-02-23T16:30:18.569Z,9.69
2019-02-23T16:32:44.824Z,9.60
2019-02-23T16:35:11.254Z,9.47
2019-02-23T16:37:44.328Z,9.16
2019-02-23T16:40:14.222Z,9.25
2019-02-23T16:42:40.658Z,9.23
2019-02-23T16:45:07.620Z,9.21
2019-02-23T16:47:34.007Z,9.14
2019-02-23T16:50:00.358Z,8.72
2019-02-23T16:52:26.457Z,8.76
2019-02-23T16:54:52.743Z,8.66
2019-02-23T16:57:18.998Z,8.64
2019-02-23T16:59:45.331Z,8.55
2019-02-23T17:02:17.508Z,8.55
2019-02-23T17:04:53.667Z,8.46
2019-02-23T17:07:14.861Z,8.36
2019-02-23T17:09:41.284Z,8.35
2019-02-23T17:12:07.753Z,8.38
2019-02-23T17:14:35.225Z,8.25
2019-02-23T17:17:06.388Z,8.13
2019-02-23T17:19:32.757Z,8.16
2019-02-23T17:21:59.106Z,8.04
2019-02-23T17:24:25.488Z,8.04
2019-02-23T17:26:52.050Z,8.00
2019-02-23T17:29:22.510Z,7.90
2019-02-23T17:31:51.056Z,7.88
2019-02-23T17:36:56.924Z,7.89
2019-02-23T17:39:23.127Z,7.86
2019-02-23T17:41:49.391Z,7.79
2019-02-23T17:44:15.696Z,7.66
2019-02-23T17:46:41.893Z,7.62
2019-02-23T17:49:08.236Z,7.57
2019-02-23T17:51:34.630Z,7.53
2019-02-23T17:54:00.983Z,7.52
2019-02-23T17:56:27.210Z,7.43
2019-02-23T17:58:53.451Z,7.38
2019-02-23T18:01:19.969Z,7.46
2019-02-23T18:03:46.315Z,7.33
2019-02-23T18:06:12.553Z,7.16
2019-02-23T18:08:38.662Z,7.19
2019-02-23T18:11:05.071Z,7.05
2019-02-23T18:13:31.418Z,7.13
2019-02-23T18:15:57.669Z,7.03
2019-02-23T18:18:24.033Z,7.09
2019-02-23T18:20:50.401Z,7.07
2019-02-23T18:23:16.857Z,7.13
2019-02-23T18:25:43.127Z,7.11
2019-02-23T18:28:14.002Z,7.09
2019-02-23T18:30:40.602Z,6.95
2019-02-23T18:33:07.312Z,6.83
2019-02-23T18:35:34.560Z,6.79
2019-02-23T18:38:02.072Z,6.74
2019-02-23T18:40:28.617Z,6.80
2019-02-23T18:42:55.125Z,6.72
2019-02-23T18:45:21.594Z,6.74
2019-02-23T18:47:48.473Z,6.65
2019-02-23T18:50:14.911Z,6.44
2019-02-23T18:52:41.279Z,6.56
2019-02-23T18:55:07.682Z,6.50
2019-02-23T18:57:34.429Z,6.48
2019-02-23T19:00:00.747Z,6.53
2019-02-23T19:02:27.276Z,6.54
2019-02-23T19:04:53.583Z,6.54
2019-02-23T19:07:19.686Z,6.43
2019-02-23T19:09:46.013Z,6.43
2019-02-23T19:12:12.500Z,6.32
2019-02-23T19:14:38.876Z,6.28
2019-02-23T19:17:05.417Z,6.23
2019-02-23T19:19:31.736Z,6.24
2019-02-23T19:21:57.918Z,6.18
2019-02-23T19:24:24.188Z,6.10
2019-02-23T19:26:50.558Z,6.12
2019-02-23T19:29:16.891Z,6.17
2019-02-23T19:31:43.445Z,6.04
2019-02-23T19:34:09.653Z,6.04
2019-02-23T19:36:36.182Z,5.88
2019-02-23T19:39:03.573Z,5.92
2019-02-23T19:41:31.691Z,5.96
2019-02-23T19:43:57.945Z,5.85
2019-02-23T19:46:24.765Z,5.93
2019-02-23T19:48:51.024Z,5.92
2019-02-23T19:51:17.459Z,5.89
2019-02-23T19:53:44.418Z,5.82
2019-02-23T19:56:10.979Z,5.78
2019-02-23T19:58:37.852Z,5.83
2019-02-23T20:01:04.213Z,5.80
2019-02-23T20:03:30.515Z,5.78
2019-02-23T20:05:56.972Z,5.78
2019-02-23T20:08:23.203Z,5.83
2019-02-23T20:10:49.475Z,5.69
2019-02-23T20:13:15.722Z,5.62
2019-02-23T20:15:41.937Z,5.72
2019-02-23T20:18:08.912Z,5.71
2019-02-23T20:20:35.370Z,5.66
2019-02-23T20:23:02.051Z,5.56
2019-02-23T20:25:28.733Z,5.60
2019-02-23T20:27:55.118Z,5.63
2019-02-23T20:30:21.607Z,5.61
2019-02-23T20:32:47.959Z,5.61
2019-02-23T20:35:15.731Z,5.57
2019-02-23T20:37:42.543Z,5.46
2019-02-23T20:40:09.109Z,5.29
2019-02-23T20:42:35.434Z,5.23
2019-02-23T20:45:02.528Z,5.27
2019-02-23T20:47:29.115Z,5.26
2019-02-23T20:49:55.585Z,5.22
2019-02-23T20:52:21.948Z,5.17
2019-02-23T20:54:48.190Z,5.10
2019-02-23T20:57:14.583Z,5.06
2019-02-23T20:59:41.252Z,4.96
2019-02-23T21:02:07.461Z,5.10
2019-02-23T21:04:34.090Z,5.12
2019-02-23T21:07:00.493Z,5.06
2019-02-23T21:09:27.033Z,4.97
2019-02-23T21:11:53.499Z,5.06
2019-02-23T21:14:20.090Z,5.00
2019-02-23T21:16:46.438Z,5.02
2019-02-23T21:19:12.921Z,4.98
2019-02-23T21:21:39.233Z,4.92
2019-02-23T21:24:05.451Z,4.80
2019-02-23T21:26:31.682Z,4.76
2019-02-23T21:28:58.016Z,4.82
2019-02-23T21:31:24.367Z,4.85
2019-02-23T21:33:50.644Z,4.86
2019-02-23T21:36:16.958Z,4.82
2019-02-23T21:38:43.207Z,4.77
2019-02-23T21:41:09.363Z,4.81
2019-02-23T21:43:35.622Z,4.76
2019-02-23T21:46:02.058Z,4.67
2019-02-23T21:48:28.379Z,4.70
2019-02-23T21:50:54.533Z,4.69
2019-02-23T21:53:21.006Z,4.68
2019-02-23T21:55:47.612Z,4.63
2019-02-23T21:58:13.801Z,4.61
2019-02-23T22:00:40.123Z,4.54
2019-02-23T22:03:07.163Z,4.65
2019-02-23T22:05:33.645Z,4.65
2019-02-23T22:08:00.520Z,4.68
2019-02-23T22:10:26.888Z,4.65
2019-02-23T22:12:53.186Z,4.50
2019-02-23T22:15:19.451Z,4.64
2019-02-23T22:17:46.107Z,4.64
2019-02-23T22:20:12.324Z,4.58
2019-02-23T22:22:38.668Z,4.63
2019-02-23T22:25:05.173Z,4.56
2019-02-23T22:27:31.771Z,4.52
2019-02-23T22:29:58.419Z,4.47
2019-02-23T22:32:24.966Z,4.48
2019-02-23T22:34:51.561Z,4.50
2019-02-23T22:37:18.512Z,4.53
2019-02-23T22:39:45.139Z,4.46
2019-02-23T22:42:11.341Z,4.40
2019-02-23T22:44:37.683Z,4.36
2019-02-23T22:47:04.209Z,4.32
2019-02-23T22:49:30.705Z,4.33
2019-02-23T22:51:57.219Z,4.41
2019-02-23T22:54:23.534Z,4.35
2019-02-23T22:56:49.964Z,4.30
2019-02-23T22:59:16.481Z,4.30
2019-02-23T23:01:43.444Z,4.26
2019-02-23T23:04:10.029Z,4.28
2019-02-23T23:06:36.786Z,4.22
2019-02-23T23:09:06.481Z,4.15
2019-02-23T23:11:33.459Z,4.07
2019-02-23T23:14:00.132Z,4.13
2019-02-23T23:16:26.558Z,4.21
2019-02-23T23:18:53.300Z,4.06
2019-02-23T23:21:22.945Z,4.20
2019-02-23T23:23:49.256Z,4.11
2019-02-23T23:26:26.573Z,4.13
2019-02-23T23:28:52.901Z,4.07
2019-02-23T23:31:19.515Z,4.03
2019-02-23T23:33:49.533Z,3.91
2019-02-23T23:36:15.792Z,4.04
2019-02-23T23:38:42.034Z,4.07
2019-02-23T23:41:08.307Z,3.92
2019-02-23T23:43:34.520Z,3.89
2019-02-23T23:46:00.749Z,3.81
2019-02-23T23:48:28.741Z,3.92
2019-02-23T23:50:55.105Z,3.89
2019-02-23T23:53:22.545Z,3.82
2019-02-23T23:55:49.043Z,3.83
2019-02-23T23:58:15.288Z,3.85
